Time;durP1;ratioP1;P1;durP2;ratioP2;P2;SDS_P1;SDS_P2;PMS_P1;PMS_P2;Temp;Humidity;BMP_temperature;BMP_pressure;BME280_temperature;BME280_humidity;BME280_pressure;Samples;Min_cycle;Max_cycle;Signal;HPM_P1;HPM_P2
2023/09/25 00:00:34;;;;;;;4.82;3.38;;;12.40;99.90;;;;;;6189521;23;20029;-74
2023/09/25 00:03:03;;;;;;;4.72;3.35;;;12.40;99.90;;;;;;6191063;23;20092;-70
2023/09/25 00:05:29;;;;;;;5.53;2.70;;;12.40;99.90;;;;;;6191288;23;20036;-71
2023/09/25 00:07:56;;;;;;;5.47;3.70;;;12.40;99.90;;;;;;6191178;23;20040;-71
2023/09/25 00:10:22;;;;;;;6.82;2.95;;;12.30;99.90;;;;;;6190467;23;20024;-72
2023/09/25 00:12:51;;;;;;;5.05;2.83;;;12.40;99.90;;;;;;6191296;23;20072;-71
2023/09/25 00:15:17;;;;;;;3.28;2.97;;;12.40;99.90;;;;;;6190716;23;20017;-72
2023/09/25 00:17:43;;;;;;;5.93;3.10;;;12.40;99.90;;;;;;6189463;23;20497;-72
2023/09/25 00:20:11;;;;;;;5.50;3.60;;;12.40;99.90;;;;;;6190751;23;20079;-70
2023/09/25 00:22:38;;;;;;;4.15;3.15;;;12.40;99.90;;;;;;6190486;23;20045;-73
2023/09/25 00:25:04;;;;;;;5.68;3.15;;;12.40;99.90;;;;;;6191009;23;20029;-72
2023/09/25 00:27:33;;;;;;;7.07;2.97;;;12.30;99.90;;;;;;6190505;23;20032;-73
2023/09/25 00:30:00;;;;;;;6.40;3.33;;;12.30;99.90;;;;;;6188919;23;20024;-71
2023/09/25 00:32:27;;;;;;;5.93;4.03;;;12.30;99.90;;;;;;6189973;23;20025;-73
2023/09/25 00:34:53;;;;;;;5.93;3.28;;;12.30;99.90;;;;;;6191227;23;20028;-73
2023/09/25 00:37:20;;;;;;;5.20;3.50;;;12.30;99.90;;;;;;6188982;23;20028;-72
2023/09/25 00:39:46;;;;;;;3.92;3.17;;;12.30;99.90;;;;;;6191031;23;20027;-74
2023/09/25 00:42:12;;;;;;;5.90;3.47;;;12.30;99.90;;;;;;6189939;23;20021;-73
2023/09/25 00:44:38;;;;;;;3.55;3.25;;;12.30;99.90;;;;;;6190464;23;20135;-73
2023/09/25 00:47:05;;;;;;;5.40;3.20;;;12.30;99.90;;;;;;6191021;23;20611;-72
2023/09/25 00:49:32;;;;;;;4.10;3.47;;;12.40;99.90;;;;;;6188188;23;20029;-73
2023/09/25 00:51:59;;;;;;;4.57;3.47;;;12.40;99.90;;;;;;6189251;23;20031;-73
2023/09/25 00:54:25;;;;;;;4.70;2.85;;;12.30;99.90;;;;;;6188633;23;20036;-71
2023/09/25 00:56:51;;;;;;;5.82;3.00;;;12.30;99.90;;;;;;6190333;23;20021;-72
2023/09/25 00:59:18;;;;;;;6.35;3.30;;;12.30;99.90;;;;;;6188969;23;20013;-72
2023/09/25 01:01:44;;;;;;;6.82;2.97;;;12.50;99.90;;;;;;6190235;23;20060;-74
2023/09/25 01:04:10;;;;;;;5.22;3.10;;;12.50;99.90;;;;;;6190666;23;20088;-72
2023/09/25 01:06:36;;;;;;;5.45;3.22;;;12.40;99.90;;;;;;6163071;23;20021;-71
2023/09/25 01:09:04;;;;;;;6.50;3.33;;;12.40;99.90;;;;;;6164497;23;20024;-73
2023/09/25 01:11:29;;;;;;;3.38;3.08;;;12.40;99.90;;;;;;6188170;23;20030;-72
2023/09/25 01:13:55;;;;;;;4.40;3.38;;;12.40;99.90;;;;;;6189201;23;20029;-73
2023/09/25 01:16:24;;;;;;;5.80;3.00;;;12.30;99.90;;;;;;6190874;23;20079;-73
2023/09/25 01:18:49;;;;;;;6.75;3.28;;;12.40;99.90;;;;;;6188286;23;20531;-72
2023/09/25 01:21:15;;;;;;;7.55;3.20;;;12.30;99.90;;;;;;6190525;23;20036;-72
2023/09/25 01:23:41;;;;;;;5.88;3.10;;;12.30;99.90;;;;;;6188490;23;20056;-73
2023/09/25 01:26:06;;;;;;;4.15;3.13;;;12.30;99.90;;;;;;6203518;22;20113;-74
2023/09/25 01:28:32;;;;;;;4.35;2.97;;;12.20;99.90;;;;;;6184642;23;20035;-75
2023/09/25 01:30:58;;;;;;;4.95;2.83;;;12.20;99.90;;;;;;6184423;23;20091;-74
2023/09/25 01:33:26;;;;;;;5.82;2.85;;;12.10;99.90;;;;;;6211266;23;20322;-76
2023/09/25 01:35:52;;;;;;;4.65;2.95;;;12.10;99.90;;;;;;6183889;23;20032;-74
2023/09/25 01:38:17;;;;;;;6.03;3.00;;;12.20;99.90;;;;;;6183955;23;20342;-76
2023/09/25 01:40:43;;;;;;;4.90;3.40;;;12.10;99.90;;;;;;6184416;23;20043;-74
2023/09/25 01:43:09;;;;;;;8.27;3.40;;;12.10;99.90;;;;;;6211064;23;20021;-75
2023/09/25 01:45:35;;;;;;;4.15;3.33;;;12.10;99.90;;;;;;6210880;23;20061;-75
2023/09/25 01:48:00;;;;;;;4.95;3.22;;;12.10;99.90;;;;;;6183971;23;20353;-75
2023/09/25 01:50:28;;;;;;;4.82;3.50;;;12.10;99.90;;;;;;6210426;23;20021;-74
2023/09/25 01:52:56;;;;;;;5.30;3.50;;;12.10;99.90;;;;;;6184529;23;20055;-74
2023/09/25 01:55:22;;;;;;;5.80;3.42;;;12.20;99.90;;;;;;6211061;23;20084;-75
2023/09/25 01:57:48;;;;;;;5.07;3.67;;;12.10;99.90;;;;;;6183769;23;20056;-74
2023/09/25 02:00:16;;;;;;;4.78;3.30;;;12.10;99.90;;;;;;6184158;23;20024;-74
2023/09/25 02:02:42;;;;;;;4.13;3.20;;;12.10;99.90;;;;;;6210854;23;20114;-75
2023/09/25 02:05:08;;;;;;;4.60;3.47;;;12.10;99.90;;;;;;6184168;23;20396;-75
2023/09/25 02:07:33;;;;;;;5.95;3.80;;;12.10;99.90;;;;;;6183977;23;20024;-75
2023/09/25 02:09:59;;;;;;;4.18;3.75;;;12.00;99.90;;;;;;6184001;23;20456;-75
2023/09/25 02:12:25;;;;;;;5.10;3.10;;;12.10;99.90;;;;;;6183850;23;20017;-75
2023/09/25 02:14:54;;;;;;;6.68;3.65;;;12.00;99.90;;;;;;6183860;23;20060;-74
2023/09/25 02:17:20;;;;;;;6.07;3.50;;;12.00;99.90;;;;;;6183713;23;20425;-75
2023/09/25 02:19:46;;;;;;;5.07;3.10;;;12.00;99.90;;;;;;6183568;23;20017;-75
2023/09/25 02:22:12;;;;;;;4.82;3.55;;;11.90;99.90;;;;;;6183889;23;20031;-75
2023/09/25 02:24:39;;;;;;;5.53;3.63;;;11.90;99.90;;;;;;6210549;23;20474;-74
2023/09/25 02:27:05;;;;;;;4.60;3.35;;;11.80;99.90;;;;;;6183258;23;20032;-74
2023/09/25 02:29:31;;;;;;;3.42;2.97;;;11.80;99.90;;;;;;6183581;23;20029;-75
2023/09/25 02:31:57;;;;;;;5.10;3.65;;;11.80;99.90;;;;;;6183726;23;20024;-74
2023/09/25 02:34:22;;;;;;;6.25;3.83;;;11.80;99.90;;;;;;6183876;23;20016;-74
2023/09/25 02:36:49;;;;;;;4.25;3.10;;;11.70;99.90;;;;;;6210535;23;20050;-74
2023/09/25 02:39:15;;;;;;;4.30;3.50;;;11.70;99.90;;;;;;6183641;23;20565;-75
2023/09/25 02:41:41;;;;;;;4.10;3.25;;;11.80;99.90;;;;;;6183632;23;20024;-74
2023/09/25 02:44:06;;;;;;;5.15;3.63;;;11.70;99.90;;;;;;6183619;23;20541;-74
2023/09/25 02:46:32;;;;;;;4.05;3.50;;;11.70;99.90;;;;;;6183432;23;20028;-72
2023/09/25 02:48:58;;;;;;;3.65;3.35;;;11.70;99.90;;;;;;6158245;23;20035;-75
2023/09/25 02:51:24;;;;;;;6.20;3.22;;;11.70;99.90;;;;;;6183564;23;20027;-74
2023/09/25 02:53:52;;;;;;;3.50;3.17;;;11.70;99.90;;;;;;6183496;23;20024;-74
2023/09/25 02:56:18;;;;;;;7.65;3.38;;;11.70;99.90;;;;;;6183543;23;20029;-74
2023/09/25 02:58:45;;;;;;;7.00;3.22;;;11.70;99.90;;;;;;6183720;23;20092;-75
2023/09/25 03:01:11;;;;;;;6.78;3.60;;;11.70;99.90;;;;;;6210208;23;20095;-74
2023/09/25 03:03:38;;;;;;;8.02;3.58;;;11.70;99.90;;;;;;6210046;23;20051;-75
2023/09/25 03:06:04;;;;;;;3.63;3.28;;;11.70;99.90;;;;;;6183609;23;20129;-73
2023/09/25 03:08:30;;;;;;;4.38;3.40;;;11.70;99.90;;;;;;6210527;23;20121;-74
2023/09/25 03:10:56;;;;;;;3.72;3.15;;;11.70;99.90;;;;;;6210278;23;20507;-74
2023/09/25 03:13:21;;;;;;;5.53;3.10;;;11.70;99.90;;;;;;6183329;23;20028;-74
2023/09/25 03:15:47;;;;;;;4.47;3.60;;;11.60;99.90;;;;;;6211265;23;20028;-73
2023/09/25 03:18:13;;;;;;;3.35;3.05;;;11.70;99.90;;;;;;6210384;23;20027;-74
2023/09/25 03:20:39;;;;;;;4.60;3.22;;;11.60;99.90;;;;;;6210711;23;20019;-74
2023/09/25 03:23:05;;;;;;;4.18;3.22;;;11.70;99.90;;;;;;6210306;23;20021;-74
2023/09/25 03:25:37;;;;;;;6.45;3.30;;;11.70;99.90;;;;;;6210266;23;20020;-73
2023/09/25 03:28:03;;;;;;;3.72;3.35;;;11.70;99.90;;;;;;6210532;23;20024;-75
2023/09/25 03:30:29;;;;;;;5.43;3.10;;;11.70;99.90;;;;;;6210608;23;20092;-74
2023/09/25 03:32:55;;;;;;;4.68;3.58;;;11.80;99.90;;;;;;6210296;23;20020;-74
2023/09/25 03:35:22;;;;;;;4.90;3.78;;;11.80;99.90;;;;;;6185000;23;20028;-74
2023/09/25 03:37:47;;;;;;;4.63;3.50;;;11.80;99.90;;;;;;6187111;23;20028;-74
2023/09/25 03:40:13;;;;;;;6.40;4.03;;;11.80;99.90;;;;;;6163245;23;20413;-74
2023/09/25 03:42:42;;;;;;;4.35;3.10;;;11.80;99.90;;;;;;6212565;23;20017;-75
2023/09/25 03:45:09;;;;;;;3.65;3.25;;;11.70;99.90;;;;;;6212504;23;20359;-74
2023/09/25 03:47:35;;;;;;;4.35;3.47;;;11.80;99.90;;;;;;6212144;23;20020;-74
2023/09/25 03:50:04;;;;;;;4.97;3.78;;;11.80;99.90;;;;;;6211996;23;20082;-74
2023/09/25 03:52:29;;;;;;;3.70;3.30;;;11.80;99.90;;;;;;6212254;23;20075;-74
2023/09/25 03:54:55;;;;;;;6.90;3.75;;;11.80;99.90;;;;;;6185208;23;20095;-75
2023/09/25 03:57:21;;;;;;;7.47;4.53;;;11.80;99.90;;;;;;6185436;23;20020;-75
2023/09/25 03:59:46;;;;;;;5.10;3.42;;;11.80;99.90;;;;;;6185505;23;20112;-74
2023/09/25 04:02:12;;;;;;;4.35;3.17;;;11.80;99.90;;;;;;6212007;23;20024;-74
2023/09/25 04:04:38;;;;;;;4.50;3.53;;;11.80;99.90;;;;;;6185195;23;20031;-75
2023/09/25 04:07:03;;;;;;;6.95;3.97;;;11.80;99.90;;;;;;6212275;23;20027;-74
2023/09/25 04:09:30;;;;;;;6.30;3.78;;;11.80;99.90;;;;;;6211971;23;20098;-74
2023/09/25 04:11:57;;;;;;;5.20;3.58;;;11.80;99.90;;;;;;6185340;23;20691;-74
2023/09/25 04:14:23;;;;;;;5.28;3.47;;;11.80;99.90;;;;;;6184943;23;20044;-74
2023/09/25 04:16:49;;;;;;;3.40;3.10;;;11.70;99.90;;;;;;6211748;23;20315;-74
2023/09/25 04:19:15;;;;;;;6.13;3.47;;;11.70;99.90;;;;;;6185064;23;20111;-75
2023/09/25 04:21:42;;;;;;;3.45;3.10;;;11.70;99.90;;;;;;6211824;23;20449;-74
2023/09/25 04:24:10;;;;;;;5.32;4.05;;;11.80;99.90;;;;;;6211991;23;20392;-74
2023/09/25 04:26:39;;;;;;;7.38;4.07;;;11.70;99.90;;;;;;6159928;23;20027;-74
2023/09/25 04:29:05;;;;;;;4.60;3.13;;;11.80;99.90;;;;;;6184497;23;20103;-74
2023/09/25 04:31:32;;;;;;;5.82;4.40;;;11.80;99.90;;;;;;6184749;23;20056;-74
2023/09/25 04:33:58;;;;;;;4.93;3.22;;;11.80;99.90;;;;;;6159887;23;20025;-74
2023/09/25 04:36:23;;;;;;;5.28;3.75;;;11.80;99.90;;;;;;6184635;23;20416;-74
2023/09/25 04:38:49;;;;;;;4.90;3.45;;;11.80;99.90;;;;;;6184497;23;20020;-74
2023/09/25 04:41:15;;;;;;;5.40;3.20;;;11.90;99.90;;;;;;6184535;23;20673;-74
2023/09/25 04:43:41;;;;;;;4.15;3.55;;;11.90;99.90;;;;;;6184443;23;20043;-74
2023/09/25 04:46:06;;;;;;;3.95;3.22;;;11.80;99.90;;;;;;6183802;23;20052;-74
2023/09/25 04:48:32;;;;;;;5.07;2.92;;;11.90;99.90;;;;;;6184674;23;20471;-74
2023/09/25 04:50:58;;;;;;;6.18;3.45;;;11.90;99.90;;;;;;6211609;23;20372;-73
2023/09/25 04:53:23;;;;;;;4.65;3.42;;;11.90;99.90;;;;;;6211299;23;20107;-74
2023/09/25 04:55:49;;;;;;;4.90;3.47;;;11.90;99.90;;;;;;6184325;23;20028;-74
2023/09/25 04:58:15;;;;;;;6.55;3.28;;;11.90;99.90;;;;;;6183951;23;20024;-74
2023/09/25 05:00:41;;;;;;;4.95;3.78;;;11.90;99.90;;;;;;6184420;23;20404;-74
2023/09/25 05:03:07;;;;;;;6.13;3.40;;;11.90;99.90;;;;;;6184440;23;20082;-74
2023/09/25 05:05:33;;;;;;;6.45;3.45;;;11.90;99.90;;;;;;6211356;23;20025;-74
2023/09/25 05:07:59;;;;;;;6.25;3.45;;;11.90;99.90;;;;;;6184462;23;20110;-74
2023/09/25 05:10:29;;;;;;;5.90;3.63;;;11.90;99.90;;;;;;6211255;23;20047;-73
2023/09/25 05:12:56;;;;;;;6.93;3.33;;;11.90;99.90;;;;;;6210628;23;20024;-74
2023/09/25 05:15:23;;;;;;;5.18;3.47;;;12.00;99.90;;;;;;6211244;23;20021;-74
2023/09/25 05:17:50;;;;;;;4.95;3.33;;;12.00;99.90;;;;;;6211229;23;20024;-74
2023/09/25 05:20:22;;;;;;;4.18;3.05;;;12.00;99.90;;;;;;6210981;23;20024;-73
2023/09/25 05:22:50;;;;;;;6.38;3.53;;;12.00;99.90;;;;;;6211403;23;20078;-74
2023/09/25 05:25:17;;;;;;;6.72;3.10;;;11.90;99.90;;;;;;6184452;23;20091;-73
2023/09/25 05:27:45;;;;;;;6.40;2.90;;;11.90;99.90;;;;;;6183473;23;20035;-74
2023/09/25 05:30:12;;;;;;;5.95;3.25;;;12.00;99.90;;;;;;6210863;23;20440;-73
2023/09/25 05:32:44;;;;;;;4.15;3.05;;;12.00;99.90;;;;;;6184352;23;20024;-73
2023/09/25 05:35:10;;;;;;;4.17;2.70;;;12.10;99.90;;;;;;6183861;23;20079;-73
2023/09/25 05:37:37;;;;;;;4.45;3.35;;;12.00;99.90;;;;;;6184598;23;20020;-74
2023/09/25 05:40:05;;;;;;;4.50;3.08;;;12.00;99.90;;;;;;6211840;23;20020;-75
2023/09/25 05:42:31;;;;;;;4.65;2.83;;;12.10;99.90;;;;;;6184264;23;20091;-74
2023/09/25 05:44:57;;;;;;;4.25;3.75;;;12.10;99.90;;;;;;6184349;23;20064;-74
2023/09/25 05:47:23;;;;;;;5.45;2.90;;;12.10;99.90;;;;;;6184200;23;20029;-74
2023/09/25 05:49:49;;;;;;;3.88;2.60;;;12.10;99.90;;;;;;6183959;23;20376;-74
2023/09/25 05:52:15;;;;;;;4.40;3.13;;;12.10;99.90;;;;;;6210982;23;20429;-74
2023/09/25 05:54:41;;;;;;;4.95;3.53;;;12.10;99.90;;;;;;6211373;23;20027;-74
2023/09/25 05:57:06;;;;;;;2.50;2.30;;;12.20;99.90;;;;;;6183348;23;20020;-74
2023/09/25 05:59:35;;;;;;;3.95;2.63;;;12.10;99.90;;;;;;6183815;23;20110;-75
2023/09/25 06:02:02;;;;;;;5.40;3.00;;;12.10;99.90;;;;;;6183853;23;20099;-74
2023/09/25 06:04:28;;;;;;;6.40;3.38;;;12.10;99.90;;;;;;6159148;23;20108;-76
2023/09/25 06:06:53;;;;;;;5.45;3.20;;;12.20;99.90;;;;;;6183991;23;20056;-75
2023/09/25 06:09:19;;;;;;;4.20;2.90;;;12.20;99.90;;;;;;6184318;23;20314;-76
2023/09/25 06:11:45;;;;;;;6.28;3.10;;;12.20;99.90;;;;;;6210529;23;20094;-75
2023/09/25 06:14:10;;;;;;;3.35;2.50;;;12.30;99.90;;;;;;6183997;23;20109;-74
2023/09/25 06:16:36;;;;;;;4.22;3.13;;;12.20;99.90;;;;;;6183877;23;20070;-75
2023/09/25 06:19:03;;;;;;;3.78;2.53;;;12.20;99.90;;;;;;6184253;23;20115;-74
2023/09/25 06:21:30;;;;;;;6.63;2.88;;;12.30;99.90;;;;;;6184279;23;20023;-74
2023/09/25 06:23:56;;;;;;;4.75;2.67;;;12.30;99.90;;;;;;6184303;23;20032;-74
2023/09/25 06:26:23;;;;;;;3.70;3.22;;;12.30;99.90;;;;;;6183835;23;20030;-74
2023/09/25 06:28:50;;;;;;;4.85;3.30;;;12.40;99.90;;;;;;6184530;23;20032;-75
2023/09/25 06:31:17;;;;;;;3.60;2.70;;;12.40;99.90;;;;;;6184498;23;20394;-73
2023/09/25 06:33:42;;;;;;;3.42;3.03;;;12.40;99.90;;;;;;6185704;23;20027;-74
2023/09/25 06:36:08;;;;;;;4.13;2.85;;;12.40;99.90;;;;;;6187348;23;20068;-75
2023/09/25 06:38:35;;;;;;;3.88;2.33;;;12.50;99.90;;;;;;6184473;23;20013;-75
2023/09/25 06:41:01;;;;;;;5.47;2.58;;;12.60;99.90;;;;;;6210710;23;20064;-73
2023/09/25 06:43:27;;;;;;;4.40;2.63;;;12.60;99.90;;;;;;6183722;23;20711;-71
2023/09/25 06:45:53;;;;;;;6.47;2.47;;;12.70;99.90;;;;;;6210660;23;20021;-72
2023/09/25 06:48:18;;;;;;;4.68;2.45;;;12.80;99.90;;;;;;6183530;23;20099;-73
2023/09/25 06:50:44;;;;;;;4.13;2.50;;;12.90;99.90;;;;;;6210525;23;20020;-73
2023/09/25 06:53:10;;;;;;;2.83;2.38;;;13.00;99.90;;;;;;6210259;23;20021;-73
2023/09/25 06:55:39;;;;;;;6.53;2.35;;;13.00;99.90;;;;;;6210247;23;20024;-73
2023/09/25 06:58:05;;;;;;;4.50;2.45;;;13.10;99.90;;;;;;6183739;23;20021;-74
2023/09/25 07:00:30;;;;;;;2.83;2.10;;;13.20;99.90;;;;;;6210302;23;20040;-73
2023/09/25 07:02:56;;;;;;;6.53;2.55;;;13.20;99.90;;;;;;6210523;23;20020;-73
2023/09/25 07:05:22;;;;;;;5.63;2.42;;;13.30;99.90;;;;;;6210455;23;20021;-73
2023/09/25 07:07:48;;;;;;;2.75;2.17;;;13.40;99.90;;;;;;6210446;23;20453;-74
2023/09/25 07:10:13;;;;;;;4.60;2.30;;;13.40;99.90;;;;;;6209965;23;20448;-72
2023/09/25 07:12:39;;;;;;;5.30;2.47;;;13.50;99.90;;;;;;6158624;23;20025;-74
2023/09/25 07:15:05;;;;;;;7.78;2.38;;;13.50;99.90;;;;;;6183327;23;20024;-72
2023/09/25 07:17:31;;;;;;;4.20;2.50;;;13.60;99.90;;;;;;6183618;23;20099;-74
2023/09/25 07:19:57;;;;;;;5.15;2.38;;;13.70;99.90;;;;;;6183866;23;20067;-77
2023/09/25 07:22:25;;;;;;;7.68;2.60;;;13.80;99.90;;;;;;6183593;23;20368;-75
2023/09/25 07:24:51;;;;;;;4.95;2.28;;;13.90;99.90;;;;;;6183168;23;20031;-72
2023/09/25 07:27:17;;;;;;;5.10;2.50;;;13.90;99.90;;;;;;6210106;23;20020;-72
2023/09/25 07:29:46;;;;;;;6.50;2.60;;;14.00;99.90;;;;;;6183494;23;20428;-72
2023/09/25 07:32:13;;;;;;;3.70;3.03;;;14.10;99.90;;;;;;6183240;23;20075;-71
2023/09/25 07:34:39;;;;;;;5.72;2.45;;;14.10;99.90;;;;;;6210408;23;20023;-72
2023/09/25 07:37:05;;;;;;;3.85;2.60;;;14.20;99.90;;;;;;6183311;23;20792;-72
2023/09/25 07:39:34;;;;;;;4.80;2.78;;;14.20;99.90;;;;;;6210034;23;20024;-71
2023/09/25 07:42:00;;;;;;;4.78;2.42;;;14.20;99.90;;;;;;6210075;23;20023;-71
2023/09/25 07:44:26;;;;;;;5.47;2.13;;;14.30;99.90;;;;;;6183267;23;20052;-71
2023/09/25 07:46:57;;;;;;;7.32;3.17;;;14.40;99.90;;;;;;6210489;23;20034;-72
2023/09/25 07:49:23;;;;;;;5.57;2.40;;;14.40;99.90;;;;;;6210907;23;20025;-66
2023/09/25 07:51:51;;;;;;;5.15;2.65;;;14.50;99.90;;;;;;6210174;23;20022;-71
2023/09/25 07:54:17;;;;;;;5.82;2.53;;;14.50;99.90;;;;;;6183284;23;20016;-71
2023/09/25 07:56:43;;;;;;;4.53;2.10;;;14.60;99.90;;;;;;6183410;23;20024;-71
2023/09/25 07:59:10;;;;;;;4.50;2.30;;;14.60;99.90;;;;;;6210323;23;20020;-71
2023/09/25 08:01:39;;;;;;;2.70;1.77;;;14.70;99.90;;;;;;6210445;23;20046;-71
2023/09/25 08:04:05;;;;;;;6.50;2.20;;;14.80;99.90;;;;;;6210677;23;20021;-71
2023/09/25 08:06:31;;;;;;;4.07;2.15;;;14.80;99.90;;;;;;6210646;23;20032;-70
2023/09/25 08:08:57;;;;;;;4.93;2.15;;;14.90;99.90;;;;;;6183627;23;20032;-71
2023/09/25 08:11:24;;;;;;;4.45;2.33;;;14.90;99.90;;;;;;6183595;23;20032;-71
2023/09/25 08:13:50;;;;;;;7.57;2.25;;;14.90;99.90;;;;;;6210823;23;20444;-71
2023/09/25 08:16:22;;;;;;;5.03;2.05;;;15.00;99.90;;;;;;6210698;23;20024;-76
2023/09/25 08:18:48;;;;;;;4.47;2.35;;;15.00;99.90;;;;;;6211150;23;20017;-76
2023/09/25 08:21:14;;;;;;;3.42;2.40;;;15.10;99.90;;;;;;6184911;23;20059;-76
2023/09/25 08:23:40;;;;;;;3.60;2.58;;;15.10;99.90;;;;;;6186270;23;20032;-77
2023/09/25 08:26:05;;;;;;;2.65;2.10;;;15.30;99.90;;;;;;6186059;23;20357;-75
2023/09/25 08:28:34;;;;;;;5.07;2.30;;;15.30;99.90;;;;;;6212829;23;20457;-76
2023/09/25 08:31:00;;;;;;;3.97;2.63;;;15.30;99.90;;;;;;6212121;23;20479;-76
2023/09/25 08:33:26;;;;;;;2.60;1.92;;;15.40;99.90;;;;;;6212092;23;20023;-76
2023/09/25 08:35:52;;;;;;;6.22;1.92;;;15.40;99.90;;;;;;6185277;23;20055;-76
2023/09/25 08:38:18;;;;;;;5.55;2.35;;;15.50;99.90;;;;;;6185411;23;20043;-76
2023/09/25 08:40:50;;;;;;;5.18;1.80;;;15.60;99.90;;;;;;6212576;23;20016;-76
2023/09/25 08:43:16;;;;;;;4.75;2.45;;;15.70;99.90;;;;;;6212357;23;20459;-76
2023/09/25 08:45:44;;;;;;;4.47;2.20;;;15.70;99.90;;;;;;6185676;23;20092;-76
2023/09/25 08:48:12;;;;;;;4.68;2.20;;;15.80;99.90;;;;;;6212742;23;20059;-77
2023/09/25 08:50:40;;;;;;;3.97;1.70;;;15.80;99.90;;;;;;6212563;23;20021;-76
2023/09/25 08:53:08;;;;;;;3.42;1.95;;;15.80;99.90;;;;;;6212660;23;20027;-76
2023/09/25 08:55:34;;;;;;;5.07;2.10;;;15.80;99.90;;;;;;6185438;23;20092;-76
2023/09/25 08:58:01;;;;;;;2.90;1.65;;;15.80;99.90;;;;;;6212033;23;20311;-78
2023/09/25 09:00:29;;;;;;;7.43;2.15;;;15.80;99.90;;;;;;6212038;23;20016;-76
2023/09/25 09:02:55;;;;;;;4.45;1.85;;;15.90;99.90;;;;;;6211942;23;20024;-76
2023/09/25 09:05:20;;;;;;;3.75;2.00;;;15.90;99.90;;;;;;6211870;23;20352;-76
2023/09/25 09:07:58;;;;;;;3.85;2.20;;;16.00;99.90;;;;;;6211618;23;20144;-76
2023/09/25 09:10:32;;;;;;;6.30;2.13;;;16.10;99.90;;;;;;6185019;23;20021;-76
2023/09/25 09:12:58;;;;;;;3.28;1.88;;;16.20;99.90;;;;;;6211616;23;20100;-77
2023/09/25 09:15:29;;;;;;;4.20;2.45;;;16.30;99.90;;;;;;6184903;23;20025;-77
2023/09/25 09:17:56;;;;;;;4.10;1.98;;;16.30;99.90;;;;;;6211675;23;20020;-77
2023/09/25 09:20:33;;;;;;;4.63;1.70;;;16.50;99.90;;;;;;6184734;23;20453;-76
2023/09/25 09:22:59;;;;;;;2.78;1.90;;;16.60;99.90;;;;;;6185104;23;20027;-77
2023/09/25 09:25:27;;;;;;;4.35;1.77;;;16.70;99.90;;;;;;6211999;23;20025;-77
2023/09/25 09:27:53;;;;;;;3.42;1.85;;;16.80;99.90;;;;;;6185307;23;20033;-77
2023/09/25 09:30:23;;;;;;;3.55;1.50;;;16.90;99.90;;;;;;6213508;23;20044;-75
2023/09/25 09:32:50;;;;;;;6.60;2.05;;;17.00;99.90;;;;;;6213950;23;20025;-77
2023/09/25 09:35:24;;;;;;;4.50;1.70;;;16.90;99.90;;;;;;6185355;23;20487;-77
2023/09/25 09:37:52;;;;;;;2.30;1.58;;;16.90;99.90;;;;;;6212187;23;20311;-77
2023/09/25 09:40:20;;;;;;;4.28;1.67;;;16.90;99.90;;;;;;6184868;23;20025;-77
2023/09/25 09:42:49;;;;;;;3.45;1.63;;;16.90;99.90;;;;;;6184728;23;20063;-77
2023/09/25 09:45:15;;;;;;;4.10;1.80;;;16.80;99.90;;;;;;6185109;23;20024;-77
2023/09/25 09:47:43;;;;;;;3.60;1.80;;;16.90;99.90;;;;;;6184749;23;20495;-77
2023/09/25 09:50:10;;;;;;;4.13;2.05;;;16.90;99.90;;;;;;6184501;23;20055;-77
2023/09/25 09:52:39;;;;;;;3.85;1.75;;;17.00;99.90;;;;;;6160000;23;20016;-78
2023/09/25 09:55:07;;;;;;;3.08;1.60;;;17.00;99.90;;;;;;6184797;23;20388;-77
2023/09/25 09:57:33;;;;;;;3.47;1.40;;;17.10;99.90;;;;;;6211337;23;20091;-78
2023/09/25 10:00:00;;;;;;;4.35;1.67;;;17.10;99.90;;;;;;6184994;23;20021;-78
2023/09/25 10:02:28;;;;;;;3.67;1.77;;;17.10;99.90;;;;;;6184765;23;20078;-77
2023/09/25 10:04:55;;;;;;;2.95;1.58;;;17.20;99.90;;;;;;6184333;23;20021;-79
2023/09/25 10:07:21;;;;;;;4.05;2.10;;;17.20;99.90;;;;;;6211181;23;20028;-73
2023/09/25 10:10:06;;;;;;;3.03;1.65;;;17.30;99.90;;;;;;6210680;23;20029;-73
2023/09/25 10:12:48;;;;;;;3.53;1.60;;;17.30;99.90;;;;;;6183772;23;20028;-73
2023/09/25 10:15:24;;;;;;;5.63;1.60;;;17.40;99.90;;;;;;6183996;23;20016;-73
2023/09/25 10:17:52;;;;;;;2.90;1.85;;;17.50;99.90;;;;;;6159314;23;20114;-73
2023/09/25 10:20:40;;;;;;;3.50;1.60;;;17.50;99.90;;;;;;6211680;23;20067;-75
2023/09/25 10:23:06;;;;;;;5.13;2.08;;;17.50;99.90;;;;;;6184634;23;20028;-76
2023/09/25 10:25:54;;;;;;;2.33;1.77;;;17.60;99.90;;;;;;6184497;23;20096;-76
2023/09/25 10:28:25;;;;;;;5.97;1.63;;;17.60;99.90;;;;;;6184114;23;20327;-76
2023/09/25 10:30:51;;;;;;;5.45;1.75;;;17.70;99.90;;;;;;6183933;23;20580;-76
2023/09/25 10:33:18;;;;;;;3.38;1.50;;;17.70;99.90;;;;;;6210843;23;20075;-78
2023/09/25 10:35:48;;;;;;;3.85;1.73;;;17.80;99.90;;;;;;6210981;23;20345;-75
2023/09/25 10:38:28;;;;;;;5.95;1.67;;;17.90;99.90;;;;;;6210816;23;20058;-74
2023/09/25 10:40:56;;;;;;;3.30;1.60;;;17.90;99.90;;;;;;6183991;23;20016;-77
2023/09/25 10:43:25;;;;;;;5.68;2.78;;;17.90;99.90;;;;;;6210683;23;20032;-77
2023/09/25 10:45:53;;;;;;;5.90;2.00;;;17.90;99.90;;;;;;6210758;23;20474;-76
2023/09/25 10:48:20;;;;;;;3.47;1.98;;;18.00;99.90;;;;;;6210786;23;20017;-76
2023/09/25 10:50:46;;;;;;;2.50;1.55;;;18.10;99.90;;;;;;6159030;23;20055;-77
2023/09/25 10:53:14;;;;;;;3.78;2.38;;;18.10;99.90;;;;;;6184046;23;20457;-78
2023/09/25 10:55:40;;;;;;;5.00;2.00;;;18.20;99.90;;;;;;6210854;23;20023;-77
2023/09/25 10:58:08;;;;;;;3.50;1.63;;;18.20;99.90;;;;;;6183962;23;20540;-77
2023/09/25 11:00:36;;;;;;;3.28;1.45;;;18.30;99.90;;;;;;6211364;23;20045;-77
2023/09/25 11:03:03;;;;;;;3.25;1.58;;;18.20;99.90;;;;;;6184191;23;20020;-76
2023/09/25 11:05:33;;;;;;;4.10;1.80;;;18.20;99.90;;;;;;6210976;23;20028;-77
2023/09/25 11:08:00;;;;;;;5.40;1.55;;;18.30;99.90;;;;;;6183939;23;20027;-78
2023/09/25 11:10:29;;;;;;;4.43;1.52;;;18.20;99.90;;;;;;6210805;23;20253;-77
2023/09/25 11:12:57;;;;;;;2.63;1.67;;;18.30;99.90;;;;;;6210925;23;20016;-77
2023/09/25 11:15:25;;;;;;;3.85;1.48;;;18.30;99.90;;;;;;6183943;23;20076;-77
2023/09/25 11:17:51;;;;;;;3.03;1.80;;;18.40;99.90;;;;;;6184022;23;20714;-78
2023/09/25 11:20:22;;;;;;;4.22;2.05;;;18.40;99.90;;;;;;6211232;23;20030;-78
2023/09/25 11:22:49;;;;;;;2.42;1.55;;;18.40;99.90;;;;;;6210540;23;20028;-77
2023/09/25 11:25:16;;;;;;;4.65;1.60;;;18.40;99.90;;;;;;6184164;23;20079;-77
2023/09/25 11:27:57;;;;;;;3.88;1.83;;;18.40;99.90;;;;;;6210416;23;20083;-77
2023/09/25 11:30:27;;;;;;;4.13;1.90;;;18.50;99.90;;;;;;6183731;23;20028;-77
2023/09/25 11:32:53;;;;;;;6.35;1.63;;;18.60;99.90;;;;;;6183244;23;20020;-77
2023/09/25 11:35:20;;;;;;;3.28;1.70;;;18.60;99.90;;;;;;6210764;23;20039;-75
2023/09/25 11:37:56;;;;;;;3.65;1.55;;;18.70;99.90;;;;;;6184119;23;20027;-77
2023/09/25 11:40:22;;;;;;;3.05;1.83;;;18.70;99.90;;;;;;6183816;23;20016;-75
2023/09/25 11:42:47;;;;;;;4.13;1.88;;;18.80;99.90;;;;;;6210732;23;20075;-78
2023/09/25 11:45:15;;;;;;;2.75;1.60;;;18.80;99.90;;;;;;6183357;23;20512;-78
2023/09/25 11:47:42;;;;;;;3.75;1.80;;;18.80;99.90;;;;;;6184096;23;20516;-80
2023/09/25 11:50:08;;;;;;;2.50;1.75;;;18.80;99.90;;;;;;6210898;23;20029;-78
2023/09/25 11:52:34;;;;;;;3.90;1.60;;;18.90;99.90;;;;;;6184162;23;20125;-81
2023/09/25 11:54:59;;;;;;;2.75;1.58;;;18.90;99.90;;;;;;6211291;23;20028;-81
2023/09/25 11:57:26;;;;;;;4.05;1.70;;;18.90;99.90;;;;;;6186424;23;20361;-82
2023/09/25 11:59:52;;;;;;;3.33;1.65;;;18.90;99.90;;;;;;6212911;23;20092;-80
2023/09/25 12:02:18;;;;;;;3.42;1.75;;;18.90;99.90;;;;;;6186532;23;20020;-81
2023/09/25 12:04:45;;;;;;;2.45;1.45;;;18.90;99.90;;;;;;6213831;23;20024;-83
2023/09/25 12:07:11;;;;;;;4.78;1.27;;;19.00;99.90;;;;;;6186191;23;20048;-80
2023/09/25 12:09:37;;;;;;;4.70;1.52;;;19.00;99.90;;;;;;6213412;23;20028;-81
2023/09/25 12:12:03;;;;;;;1.98;1.63;;;19.00;99.90;;;;;;6213228;23;20025;-83
2023/09/25 12:14:28;;;;;;;3.53;1.90;;;19.00;99.90;;;;;;6213112;23;20337;-81
2023/09/25 12:16:55;;;;;;;3.38;1.45;;;19.00;99.90;;;;;;6213867;23;20024;-81
2023/09/25 12:19:21;;;;;;;2.63;1.60;;;19.00;99.90;;;;;;6186505;23;20092;-82
2023/09/25 12:21:47;;;;;;;3.13;1.40;;;19.00;99.90;;;;;;6186785;23;20559;-81
2023/09/25 12:24:13;;;;;;;4.18;2.03;;;18.90;99.90;;;;;;6215082;23;20021;-82
2023/09/25 12:26:38;;;;;;;4.80;1.90;;;18.90;99.90;;;;;;6190135;23;20029;-81
2023/09/25 12:29:07;;;;;;;3.38;1.73;;;18.90;99.90;;;;;;6213628;23;20627;-83
2023/09/25 12:31:33;;;;;;;6.20;1.83;;;18.90;99.90;;;;;;6186535;23;20064;-81
2023/09/25 12:33:58;;;;;;;3.33;1.65;;;19.00;99.90;;;;;;6213698;23;20023;-82
2023/09/25 12:36:24;;;;;;;1.92;1.52;;;19.10;99.90;;;;;;6213162;23;20103;-82
2023/09/25 12:38:50;;;;;;;3.38;1.73;;;19.10;99.90;;;;;;6186680;23;20021;-81
2023/09/25 12:41:15;;;;;;;5.72;2.10;;;19.10;99.90;;;;;;6186503;23;20025;-81
2023/09/25 12:43:41;;;;;;;4.03;1.75;;;19.30;99.90;;;;;;6186178;23;20025;-80
2023/09/25 12:46:07;;;;;;;5.75;1.50;;;19.30;99.90;;;;;;6213165;23;20488;-79